Shelby — WCV6157 — position and weather

sailwx.info

Track history (hours):
 
Tides and Currents Weather Stations Pressure Air Temp Water Temp Dewpoint Dewpoint Depression Visibility Wind Speed Wind Dir Waves Ship Positions

Shelby

Owner: WEEKS MARINE, INC., CRANFORD, NJ. More information available from US FCC via Universal Licensing System and Coast Guard Vessel Documentation Center.

Last reported at 2016-Jul-25 10:16 UTC. Time now 2016-Jul-25 20:02 UTC.
Position N 40°20' W 073°52'.

Length 22 m; draft 3.1 m.

Type: Tug. MMSI: 366902344.

Date/timePositionNaut miles runAvg speedWind from/ knotsBaromVisibWave heightAir tempDewpointWater temp
2016-Jul-25 10:16N 40°20' W 073°52'7 6.3
2016-Jul-25 09:11N 40°26' W 073°55'3 5.5
2016-Jul-25 08:33N 40°29' W 073°58'0 0.4
2016-Jul-25 07:33N 40°28' W 073°58'2 2.0
2016-Jul-25 06:31N 40°27' W 074°01'0 0.0
2016-Jul-25 05:33N 40°27' W 074°01'0 0.0
2016-Jul-25 04:29N 40°27' W 074°01'10 0.6
2016-Jul-24 11:15N 40°20' W 073°52'10 0.4
2016-Jul-23 10:09N 40°28' W 074°01'2 3.3
2016-Jul-23 09:33N 40°29' W 073°58'0 0.4
2016-Jul-23 08:32N 40°29' W 073°58'1 0.0
2016-Jul-22 20:11N 40°29' W 073°59'1 0.1
2016-Jul-22 16:14N 40°29' W 073°58'1 0.4
2016-Jul-22 14:11N 40°29' W 073°59'2 0.2
2016-Jul-22 04:29N 40°28' W 074°02'3 3.2
2016-Jul-22 03:32N 40°28' W 073°58'9 7.4
2016-Jul-22 02:21N 40°22' W 073°50'2 2.8
2016-Jul-22 01:33N 40°21' W 073°53'9 2.8
2016-Jul-21 22:13N 40°29' W 073°59'2 2.6
2016-Jul-21 21:18N 40°28' W 073°57'2 0.1
2016-Jul-21 05:33N 40°29' W 073°58'0 0.1
2016-Jul-21 03:03N 40°29' W 073°59'0 0.0
2016-Jul-21 02:31N 40°29' W 073°59'1 0.0
2016-Jul-19 17:29N 40°29' W 073°59'2 0.3
2016-Jul-19 10:25N 40°27' W 074°01'2 0.1
2016-Jul-18 19:11N 40°29' W 073°59'3 0.9
2016-Jul-18 15:29N 40°27' W 073°56'5 0.8
2016-Jul-18 08:33N 40°29' W 074°03'1111.0
2016-Jul-18 07:33N 40°40' W 074°04'1 0.6
2016-Jul-18 06:33N 40°40' W 074°04'6 5.5
2016-Jul-18 05:33N 40°35' W 074°02'15 0.8
2016-Jul-17 09:25N 40°22' W 073°50'7 5.5
2016-Jul-17 08:09N 40°28' W 073°56'3 3.7
2016-Jul-17 07:27N 40°29' W 073°59'6 1.9
2016-Jul-17 04:11N 40°25' W 073°53'4 6.8
2016-Jul-17 03:33N 40°22' W 073°50'10 2.5
2016-Jul-16 23:33N 40°29' W 073°59'2 0.5
2016-Jul-16 18:21N 40°28' W 074°02'9 1.1
2016-Jul-16 10:27N 40°24' W 073°52'7 6.3
2016-Jul-16 09:22N 40°29' W 073°59'0 0.0
2016-Jul-15 22:12N 40°29' W 073°59'0 0.2
2016-Jul-15 20:25N 40°29' W 073°59'1 0.1
2016-Jul-15 15:29N 40°29' W 073°59'6 5.9
2016-Jul-15 14:30N 40°34' W 074°02'6 3.1
2016-Jul-15 12:28N 40°39' W 074°07'0 0.0
2016-Jul-15 11:33N 40°39' W 074°07'0 0.3
2016-Jul-15 10:33N 40°39' W 074°06'  
Track history (hours):
 
Tides and Currents Weather Stations Pressure Air Temp Water Temp Dewpoint Dewpoint Depression Visibility Wind Speed Wind Dir Waves Ship Positions

Shelby

Owner: WEEKS MARINE, INC., CRANFORD, NJ. More information available from US FCC via Universal Licensing System and Coast Guard Vessel Documentation Center.

Last reported at 2016-Jul-25 10:16 UTC. Time now 2016-Jul-25 20:02 UTC.
Position N 40°20' W 073°52'.

Length 22 m; draft 3.1 m.

Type: Tug. MMSI: 366902344.

Date/timePositionNaut miles runAvg speedWind from/ knotsBaromVisibWave heightAir tempDewpointWater temp
2016-Jul-25 10:16N 40°20' W 073°52'7 6.3
2016-Jul-25 09:11N 40°26' W 073°55'3 5.5
2016-Jul-25 08:33N 40°29' W 073°58'0 0.4
2016-Jul-25 07:33N 40°28' W 073°58'2 2.0
2016-Jul-25 06:31N 40°27' W 074°01'0 0.0
2016-Jul-25 05:33N 40°27' W 074°01'0 0.0
2016-Jul-25 04:29N 40°27' W 074°01'10 0.6
2016-Jul-24 11:15N 40°20' W 073°52'10 0.4
2016-Jul-23 10:09N 40°28' W 074°01'2 3.3
2016-Jul-23 09:33N 40°29' W 073°58'0 0.4
2016-Jul-23 08:32N 40°29' W 073°58'1 0.0
2016-Jul-22 20:11N 40°29' W 073°59'1 0.1
2016-Jul-22 16:14N 40°29' W 073°58'1 0.4
2016-Jul-22 14:11N 40°29' W 073°59'2 0.2
2016-Jul-22 04:29N 40°28' W 074°02'3 3.2
2016-Jul-22 03:32N 40°28' W 073°58'9 7.4
2016-Jul-22 02:21N 40°22' W 073°50'2 2.8
2016-Jul-22 01:33N 40°21' W 073°53'9 2.8
2016-Jul-21 22:13N 40°29' W 073°59'2 2.6
2016-Jul-21 21:18N 40°28' W 073°57'2 0.1
2016-Jul-21 05:33N 40°29' W 073°58'0 0.1
2016-Jul-21 03:03N 40°29' W 073°59'0 0.0
2016-Jul-21 02:31N 40°29' W 073°59'1 0.0
2016-Jul-19 17:29N 40°29' W 073°59'2 0.3
2016-Jul-19 10:25N 40°27' W 074°01'2 0.1
2016-Jul-18 19:11N 40°29' W 073°59'3 0.9
2016-Jul-18 15:29N 40°27' W 073°56'5 0.8
2016-Jul-18 08:33N 40°29' W 074°03'1111.0
2016-Jul-18 07:33N 40°40' W 074°04'1 0.6
2016-Jul-18 06:33N 40°40' W 074°04'6 5.5
2016-Jul-18 05:33N 40°35' W 074°02'15 0.8
2016-Jul-17 09:25N 40°22' W 073°50'7 5.5
2016-Jul-17 08:09N 40°28' W 073°56'3 3.7
2016-Jul-17 07:27N 40°29' W 073°59'6 1.9
2016-Jul-17 04:11N 40°25' W 073°53'4 6.8
2016-Jul-17 03:33N 40°22' W 073°50'10 2.5
2016-Jul-16 23:33N 40°29' W 073°59'2 0.5
2016-Jul-16 18:21N 40°28' W 074°02'9 1.1
2016-Jul-16 10:27N 40°24' W 073°52'7 6.3
2016-Jul-16 09:22N 40°29' W 073°59'0 0.0
2016-Jul-15 22:12N 40°29' W 073°59'0 0.2
2016-Jul-15 20:25N 40°29' W 073°59'1 0.1
2016-Jul-15 15:29N 40°29' W 073°59'6 5.9
2016-Jul-15 14:30N 40°34' W 074°02'6 3.1
2016-Jul-15 12:28N 40°39' W 074°07'0 0.0
2016-Jul-15 11:33N 40°39' W 074°07'0 0.3
2016-Jul-15 10:33N 40°39' W 074°06'  

Dump ship's entire track history